Carville, Louisiana
Current Conditions -  °F | °C
As of 4:55 AM on Friday 28 Nov 2014 (Local Time) from KL38 Reporting Station
Clear Clear  
Wind Chill: 37°   Ceiling: Unl
Heat Index: 37°   Visibility: 10mi
Dew Point: 35°   Wind: 0mph
Humidity: 92%   Direction: NA
Pressure: 30.42"   Gusts: NA
Location:  30.22°N, 91.1°W
Report Text: KL38 281055Z AUTO 00000KT 10SM CLR 03/01 A3042 RMK AO2 T00260014
Loading
Personal Weather Stations






























Interactive Weather Map New forecast layout! Learn more

10-Day Weather Forecast

Advertisements
Track Severe Weather on mobile